Time;durP1;ratioP1;P1;durP2;ratioP2;P2;SDS_P1;SDS_P2;PMS_P1;PMS_P2;Temp;Humidity;BMP_temperature;BMP_pressure;BME280_temperature;BME280_humidity;BME280_pressure;Samples;Min_cycle;Max_cycle;Signal;HPM_P1;HPM_P2
2023/02/15 00:02:07;;;;;;;31.05;15.77;;;;;;;0.66;100.00;102177.78;5228999;28;20517;-75
2023/02/15 00:04:46;;;;;;;42.30;15.27;;;;;;;0.63;100.00;102175.13;5231085;28;20120;-75
2023/02/15 00:07:18;;;;;;;44.42;15.15;;;;;;;0.48;100.00;102172.09;5231436;28;20025;-74
2023/02/15 00:09:49;;;;;;;78.07;16.77;;;;;;;0.40;100.00;102180.41;5218918;28;20263;-74
2023/02/15 00:12:19;;;;;;;41.80;14.73;;;;;;;0.61;100.00;102170.75;5219855;28;20121;-74
2023/02/15 00:14:49;;;;;;;41.20;15.82;;;;;;;0.53;100.00;102173.09;5224558;28;20449;-76
2023/02/15 00:17:20;;;;;;;29.58;16.17;;;;;;;0.55;100.00;102168.88;5231201;28;20021;-74
2023/02/15 00:19:51;;;;;;;43.28;15.77;;;;;;;0.45;100.00;102174.59;5222479;28;20033;-75
2023/02/15 00:22:21;;;;;;;32.58;15.23;;;;;;;0.47;100.00;102172.03;5225940;28;20031;-74
2023/02/15 00:24:51;;;;;;;40.65;15.52;;;;;;;0.35;100.00;102166.53;5229421;28;20033;-73
2023/02/15 00:27:22;;;;;;;60.08;15.80;;;;;;;0.32;100.00;102174.13;5231298;28;20310;-73
2023/02/15 00:29:52;;;;;;;44.92;15.95;;;;;;;0.20;100.00;102166.06;5227227;28;20410;-74
2023/02/15 00:32:22;;;;;;;32.58;16.88;;;;;;;0.06;100.00;102168.16;5221616;28;20035;-74
2023/02/15 00:34:52;;;;;;;33.25;16.95;;;;;;;0.11;100.00;102168.31;5227490;28;20036;-74
2023/02/15 00:37:23;;;;;;;32.45;17.35;;;;;;;0.19;100.00;102157.47;5230213;28;20028;-75
2023/02/15 00:39:53;;;;;;;28.85;17.20;;;;;;;0.22;100.00;102167.84;5228910;28;20950;-74
2023/02/15 00:42:24;;;;;;;31.10;17.20;;;;;;;0.34;100.00;102162.19;5222320;28;20024;-74
2023/02/15 00:44:54;;;;;;;33.05;17.30;;;;;;;0.33;100.00;102158.78;5221268;28;20039;-75
2023/02/15 00:47:25;;;;;;;30.83;17.27;;;;;;;0.21;100.00;102165.25;5224747;28;20350;-74
2023/02/15 00:49:55;;;;;;;28.95;16.77;;;;;;;0.19;100.00;102154.88;5228317;28;21114;-74
2023/02/15 00:52:25;;;;;;;29.23;16.90;;;;;;;0.39;100.00;102146.09;5230365;28;20394;-75
2023/02/15 00:54:56;;;;;;;30.27;17.15;;;;;;;0.20;100.00;102141.22;5222694;28;20525;-74
2023/02/15 00:57:26;;;;;;;33.78;18.90;;;;;;;0.10;100.00;102136.63;5225906;28;20028;-74
2023/02/15 00:59:56;;;;;;;33.95;17.58;;;;;;;0.24;100.00;102132.75;5228415;28;20387;-74
2023/02/15 01:02:26;;;;;;;30.15;17.10;;;;;;;0.30;100.00;102127.84;5231102;28;20135;-74
2023/02/15 01:04:57;;;;;;;33.80;18.30;;;;;;;0.26;100.00;102127.69;5226385;28;20233;-74
2023/02/15 01:07:27;;;;;;;28.52;16.10;;;;;;;0.32;100.00;102126.19;5225511;28;20107;-74
2023/02/15 01:09:57;;;;;;;31.75;16.90;;;;;;;0.27;100.00;102121.72;5226594;28;20051;-74
2023/02/15 01:12:27;;;;;;;31.58;16.85;;;;;;;0.22;100.00;102113.84;5228334;28;20397;-74
2023/02/15 01:14:58;;;;;;;32.83;17.25;;;;;;;0.24;100.00;102111.34;5222422;28;20024;-75
2023/02/15 01:17:28;;;;;;;31.27;17.20;;;;;;;0.21;100.00;102109.53;5228335;28;20107;-76
2023/02/15 01:19:59;;;;;;;34.95;18.00;;;;;;;0.13;100.00;102113.59;5227903;28;20035;-74
2023/02/15 01:22:29;;;;;;;35.10;17.70;;;;;;;0.19;100.00;102111.19;5229422;28;20021;-74
2023/02/15 01:24:59;;;;;;;37.65;17.85;;;;;;;0.36;100.00;102111.72;5228302;28;20435;-74
2023/02/15 01:27:32;;;;;;;35.42;17.80;;;;;;;0.38;100.00;102104.94;5231038;28;20017;-73
2023/02/15 01:30:04;;;;;;;38.03;18.65;;;;;;;0.38;100.00;102102.34;5229228;28;20068;-74
2023/02/15 01:32:34;;;;;;;40.63;19.25;;;;;;;0.16;100.00;102100.84;5229401;28;20509;-74
2023/02/15 01:35:06;;;;;;;42.33;20.67;;;;;;;0.20;100.00;102099.22;5229106;28;20033;-75
2023/02/15 01:37:36;;;;;;;43.53;20.02;;;;;;;0.11;100.00;102098.94;5227649;28;20016;-73
2023/02/15 01:40:13;;;;;;;47.97;21.80;;;;;;;0.08;100.00;102101.44;5230151;28;20031;-74
2023/02/15 01:42:44;;;;;;;47.88;22.58;;;;;;;0.29;100.00;102090.09;5226608;28;20081;-74
2023/02/15 01:45:21;;;;;;;47.05;21.52;;;;;;;0.40;100.00;102088.69;5209235;28;20533;-74
2023/02/15 01:48:04;;;;;;;44.10;20.30;;;;;;;0.23;100.00;102082.19;5215665;28;20280;-76
2023/02/15 01:50:39;;;;;;;46.33;21.73;;;;;;;0.15;100.00;102086.25;5216075;28;20215;-74
2023/02/15 01:53:21;;;;;;;40.78;20.17;;;;;;;0.27;100.00;102085.72;5224123;28;20028;-74
2023/02/15 01:56:20;;;;;;;42.15;20.35;;;;;;;0.30;100.00;102088.38;5231452;28;20488;-74
2023/02/15 01:58:53;;;;;;;48.13;21.85;;;;;;;0.21;100.00;102086.41;5226302;28;20078;-76
2023/02/15 02:01:25;;;;;;;47.70;22.13;;;;;;;0.30;100.00;102096.97;5230887;28;20056;-74
2023/02/15 02:04:09;;;;;;;47.70;23.70;;;;;;;0.44;100.00;102090.56;5227516;28;20029;-75
2023/02/15 02:06:40;;;;;;;52.95;23.52;;;;;;;0.47;100.00;102088.06;5229314;28;20020;-75
2023/02/15 02:09:10;;;;;;;51.33;23.17;;;;;;;0.59;100.00;102078.09;5226667;28;20111;-73
2023/02/15 02:11:42;;;;;;;52.10;24.08;;;;;;;0.47;100.00;102074.31;5228078;28;20025;-74
2023/02/15 02:14:13;;;;;;;50.30;24.27;;;;;;;0.68;100.00;102064.63;5228483;28;20021;-74
2023/02/15 02:16:55;;;;;;;50.10;23.40;;;;;;;0.58;100.00;102067.78;5220861;28;20020;-76
2023/02/15 02:19:47;;;;;;;56.67;25.40;;;;;;;0.60;100.00;102064.44;5221766;28;20390;-75
2023/02/15 02:22:54;;;;;;;54.83;24.63;;;;;;;0.68;100.00;102062.06;5309101;22;20438;-77
2023/02/15 02:25:31;;;;;;;55.92;21.88;;;;;;;0.52;100.00;102068.50;5202553;28;20104;-77
2023/02/15 02:28:19;;;;;;;45.40;20.30;;;;;;;0.43;100.00;102059.66;5213064;28;20076;-77
2023/02/15 02:30:58;;;;;;;45.75;19.67;;;;;;;0.51;100.00;102061.59;5212486;28;20515;-77
2023/02/15 02:33:40;;;;;;;41.97;20.25;;;;;;;0.42;100.00;102053.63;5186596;28;20079;-79
2023/02/15 02:36:40;;;;;;;40.40;18.95;;;;;;;0.39;100.00;102063.81;5191249;28;20168;-78
2023/02/15 02:39:22;;;;;;;43.40;19.40;;;;;;;0.44;100.00;102054.56;5191784;28;20534;-79
2023/02/15 02:42:05;;;;;;;42.70;19.55;;;;;;;0.37;100.00;102056.91;5168356;28;20044;-78
2023/02/15 02:44:46;;;;;;;46.08;18.08;;;;;;;0.39;100.00;102043.25;5189047;28;20037;-77
2023/02/15 02:47:50;;;;;;;38.47;16.98;;;;;;;0.12;100.00;102045.03;5184841;28;20026;-80
2023/02/15 02:50:27;;;;;;;37.55;15.85;;;;;;;0.05;100.00;102043.09;5176570;28;20104;-78
2023/02/15 02:52:58;;;;;;;40.05;16.13;;;;;;;0.04;100.00;102030.22;5189541;28;20033;-76
2023/02/15 02:55:39;;;;;;;45.72;16.40;;;;;;;-0.03;100.00;102034.28;5189121;28;20368;-79
2023/02/15 02:58:21;;;;;;;41.83;15.20;;;;;;;-0.03;100.00;102029.16;5192082;28;20028;-76
2023/02/15 03:01:05;;;;;;;32.63;16.05;;;;;;;-0.06;100.00;102024.75;5189253;28;20025;-78
2023/02/15 03:03:40;;;;;;;42.03;16.30;;;;;;;-0.10;100.00;102030.59;5187280;28;20514;-77
2023/02/15 03:06:17;;;;;;;45.15;16.60;;;;;;;-0.12;100.00;102027.13;5189318;28;20184;-77
2023/02/15 03:08:58;;;;;;;52.15;18.10;;;;;;;-0.04;100.00;102030.81;5169597;28;20026;-77
2023/02/15 03:11:29;;;;;;;33.15;17.02;;;;;;;0.04;100.00;102025.94;5189838;28;20163;-78
2023/02/15 03:13:59;;;;;;;36.95;17.70;;;;;;;-0.03;100.00;102021.44;5194182;28;20041;-78
2023/02/15 03:16:30;;;;;;;33.10;17.67;;;;;;;-0.07;100.00;102020.44;5184467;28;20022;-79
2023/02/15 03:19:17;;;;;;;38.05;18.85;;;;;;;0.04;100.00;102014.78;5175263;28;20091;-78
2023/02/15 03:21:57;;;;;;;33.70;17.40;;;;;;;-0.05;100.00;102014.50;5188322;28;20180;-76
2023/02/15 03:24:51;;;;;;;32.35;17.27;;;;;;;-0.05;100.00;102011.09;5187958;28;20275;-78
2023/02/15 03:27:26;;;;;;;36.17;17.15;;;;;;;-0.04;100.00;102011.13;5178382;28;20447;-78
2023/02/15 03:29:59;;;;;;;41.72;18.08;;;;;;;-0.17;100.00;102008.13;5192507;28;20503;-78
2023/02/15 03:32:32;;;;;;;40.47;18.23;;;;;;;-0.33;100.00;102008.50;5191146;28;20476;-77
2023/02/15 03:35:03;;;;;;;40.22;17.80;;;;;;;-0.32;100.00;102013.69;5194068;28;20033;-78
2023/02/15 03:37:53;;;;;;;50.10;17.67;;;;;;;-0.46;100.00;102009.81;5188545;28;20401;-78
2023/02/15 03:43:39;;;;;;;43.95;18.13;;;;;;;-0.65;100.00;101996.34;5177654;28;20521;-79
2023/02/15 03:46:31;;;;;;;48.20;17.23;;;;;;;-0.70;100.00;101997.91;5183438;28;20041;-79
2023/02/15 03:49:29;;;;;;;35.83;17.88;;;;;;;-0.68;100.00;101988.56;5189281;28;20033;-78
2023/02/15 03:52:03;;;;;;;39.05;18.65;;;;;;;-0.71;100.00;101986.75;5179776;28;20044;-79
2023/02/15 03:54:47;;;;;;;43.08;20.30;;;;;;;-0.53;100.00;101976.19;5186583;28;20030;-79
2023/02/15 04:03:26;;;;;;;45.88;20.80;;;;;;;-0.71;100.00;101975.63;5189979;28;20428;-78
2023/02/15 04:05:56;;;;;;;42.35;20.40;;;;;;;-0.56;100.00;101970.97;5168504;28;20037;-79
2023/02/15 04:10:51;;;;;;;44.00;21.23;;;;;;;-0.53;100.00;101968.50;5187918;28;20033;-78
2023/02/15 04:11:16;;;;;;;53.88;21.45;;;;;;;-0.48;100.00;101972.06;5186014;28;20026;-77
2023/02/15 04:13:47;;;;;;;41.55;19.92;;;;;;;-0.35;100.00;101977.63;5193168;28;20434;-77
2023/02/15 04:16:17;;;;;;;55.58;20.85;;;;;;;-0.37;100.00;101971.56;5183165;28;20030;-78
2023/02/15 04:27:14;;;;;;;44.33;20.15;;;;;;;-0.33;100.00;101975.13;5188626;28;20396;-77
2023/02/15 04:29:44;;;;;;;50.20;19.27;;;;;;;-0.36;100.00;101969.88;5188900;28;20029;-77
2023/02/15 04:32:14;;;;;;;42.92;19.50;;;;;;;-0.47;100.00;101972.13;5171931;28;20129;-78
2023/02/15 04:34:44;;;;;;;45.83;20.33;;;;;;;-0.66;100.00;101976.63;5187770;28;20033;-79
2023/02/15 04:37:15;;;;;;;48.70;19.30;;;;;;;-0.73;100.00;101977.28;5187668;28;20036;-78
2023/02/15 04:39:45;;;;;;;49.53;20.90;;;;;;;-0.73;100.00;101977.28;5179266;28;20446;-78
2023/02/15 04:42:15;;;;;;;54.35;20.65;;;;;;;-0.71;100.00;101978.19;5184371;28;20121;-77
2023/02/15 04:44:46;;;;;;;56.35;20.42;;;;;;;-0.67;100.00;101968.09;5180977;28;20403;-75
2023/02/15 04:47:16;;;;;;;54.63;20.65;;;;;;;-0.47;100.00;101961.88;5190789;28;20072;-78
2023/02/15 04:49:47;;;;;;;39.13;18.63;;;;;;;-0.62;100.00;101963.94;5190290;28;20138;-79
2023/02/15 04:52:17;;;;;;;43.72;19.40;;;;;;;-0.67;100.00;101967.19;5189249;28;20025;-78
2023/02/15 04:54:47;;;;;;;41.60;19.38;;;;;;;-0.77;100.00;101965.16;5184130;28;20033;-77
2023/02/15 04:57:18;;;;;;;39.03;17.92;;;;;;;-0.69;100.00;101953.44;5188348;28;20580;-77
2023/02/15 04:59:48;;;;;;;51.08;18.13;;;;;;;-0.64;100.00;101952.78;5182422;28;20025;-77
2023/02/15 05:02:18;;;;;;;33.90;15.93;;;;;;;-0.54;100.00;101947.06;5185264;28;20033;-78
2023/02/15 05:04:49;;;;;;;32.65;16.38;;;;;;;-0.51;100.00;101946.31;5191789;28;20021;-75
2023/02/15 05:07:20;;;;;;;31.52;16.15;;;;;;;-0.52;100.00;101939.44;5170067;28;20025;-80
2023/02/15 05:09:50;;;;;;;32.70;16.45;;;;;;;-0.52;100.00;101936.88;5183008;28;20491;-79
2023/02/15 05:12:20;;;;;;;42.25;15.90;;;;;;;-0.63;100.00;101938.22;5182957;28;20022;-77
2023/02/15 05:14:51;;;;;;;34.80;15.85;;;;;;;-0.63;100.00;101938.22;5184793;28;20052;-76
2023/02/15 05:17:21;;;;;;;31.65;15.68;;;;;;;-0.72;100.00;101945.66;5173759;28;20121;-77
2023/02/15 05:19:51;;;;;;;28.90;16.08;;;;;;;-0.74;100.00;101947.31;5190935;28;20124;-78
2023/02/15 05:22:21;;;;;;;41.00;16.85;;;;;;;-0.80;100.00;101942.84;5181289;28;20037;-77
2023/02/15 05:30:29;;;;;;;42.67;16.02;;;;;;;-0.86;100.00;101934.09;5186047;28;20044;-78
2023/02/15 05:33:00;;;;;;;29.58;15.50;;;;;;;-0.87;100.00;101928.06;5191723;28;20487;-78
2023/02/15 05:35:31;;;;;;;32.17;16.73;;;;;;;-0.87;100.00;101932.34;5164338;28;20053;-78
2023/02/15 05:38:01;;;;;;;36.55;16.45;;;;;;;-0.96;100.00;101934.59;5191394;28;20549;-77
2023/02/15 05:40:31;;;;;;;30.90;15.50;;;;;;;-0.73;100.00;101924.25;5187061;28;20030;-77
2023/02/15 05:43:02;;;;;;;38.95;15.80;;;;;;;-0.85;100.00;101928.13;5183674;28;20053;-78
2023/02/15 05:45:32;;;;;;;30.98;15.38;;;;;;;-0.76;100.00;101925.88;5184601;28;20296;-78
2023/02/15 05:48:02;;;;;;;34.88;16.20;;;;;;;-0.80;100.00;101924.88;5198389;28;20111;-78
2023/02/15 05:50:33;;;;;;;44.08;16.50;;;;;;;-0.80;100.00;101921.44;5188423;28;20116;-77
2023/02/15 05:53:03;;;;;;;28.88;15.80;;;;;;;-0.93;100.00;101920.19;5188615;28;20030;-77
2023/02/15 05:55:33;;;;;;;36.67;16.23;;;;;;;-0.91;100.00;101917.69;5186210;28;20152;-77
2023/02/15 05:58:04;;;;;;;28.15;16.42;;;;;;;-0.92;100.00;101923.63;5189792;28;20040;-78
2023/02/15 06:00:34;;;;;;;38.13;16.60;;;;;;;-0.89;100.00;101919.44;5198772;28;20022;-78
2023/02/15 06:03:05;;;;;;;39.22;17.38;;;;;;;-0.86;100.00;101918.69;5200927;28;20274;-78
2023/02/15 06:05:35;;;;;;;26.75;15.80;;;;;;;-0.87;100.00;101927.22;5194613;28;20030;-77
2023/02/15 06:08:05;;;;;;;29.23;16.58;;;;;;;-0.92;100.00;101928.78;5177942;28;20453;-78
2023/02/15 06:10:36;;;;;;;30.13;16.58;;;;;;;-0.90;100.00;101933.09;5193206;28;20455;-77
2023/02/15 06:13:06;;;;;;;30.85;17.08;;;;;;;-0.94;100.00;101938.06;5192410;28;20026;-77
2023/02/15 06:15:37;;;;;;;26.95;15.70;;;;;;;-1.01;100.00;101941.28;5195249;28;20044;-78
2023/02/15 06:18:07;;;;;;;27.83;16.38;;;;;;;-1.11;100.00;101940.13;5195419;28;20061;-78
2023/02/15 06:20:37;;;;;;;27.30;15.93;;;;;;;-0.98;100.00;101943.94;5194671;28;20036;-79
2023/02/15 06:23:08;;;;;;;27.27;16.13;;;;;;;-0.88;100.00;101931.44;5190439;28;20034;-79
2023/02/15 06:25:38;;;;;;;26.58;15.90;;;;;;;-1.04;100.00;101936.06;5194563;28;20246;-78
2023/02/15 06:28:08;;;;;;;31.10;15.90;;;;;;;-1.00;100.00;101945.59;5190316;28;20523;-78
2023/02/15 06:30:39;;;;;;;27.95;16.05;;;;;;;-1.02;100.00;101937.88;5187950;28;20042;-77
2023/02/15 06:33:09;;;;;;;28.55;16.23;;;;;;;-1.03;100.00;101937.78;5190767;28;20025;-78
2023/02/15 06:35:40;;;;;;;27.35;15.77;;;;;;;-0.99;100.00;101937.97;5192521;28;20470;-78
2023/02/15 06:38:10;;;;;;;24.55;14.35;;;;;;;-0.98;100.00;101934.56;5195763;28;20040;-78
2023/02/15 06:40:40;;;;;;;24.02;14.50;;;;;;;-0.90;100.00;101935.66;5184857;28;20037;-78
2023/02/15 06:43:10;;;;;;;25.00;14.40;;;;;;;-0.95;100.00;101934.66;5157359;28;20025;-74
2023/02/15 06:45:41;;;;;;;23.90;14.55;;;;;;;-1.07;100.00;101934.25;5188174;28;20167;-77
2023/02/15 06:48:11;;;;;;;23.50;14.13;;;;;;;-1.11;100.00;101931.53;5187546;28;20407;-77
2023/02/15 06:50:41;;;;;;;21.05;13.15;;;;;;;-1.05;100.00;101939.44;5190295;28;20092;-77
2023/02/15 06:53:12;;;;;;;23.23;13.88;;;;;;;-1.08;100.00;101936.78;5191357;28;20025;-77
2023/02/15 06:55:42;;;;;;;25.02;13.70;;;;;;;-1.01;100.00;101933.59;5194874;28;20036;-78
2023/02/15 06:58:12;;;;;;;21.88;13.52;;;;;;;-1.00;100.00;101936.22;5193180;28;20482;-78
2023/02/15 07:00:42;;;;;;;22.65;13.90;;;;;;;-1.02;100.00;101932.72;5171149;28;20025;-77
2023/02/15 07:03:14;;;;;;;23.05;14.18;;;;;;;-0.71;100.00;101921.72;5197630;28;20465;-78
2023/02/15 07:05:45;;;;;;;23.13;13.80;;;;;;;-0.66;100.00;101931.31;5195556;28;20029;-78
2023/02/15 07:08:15;;;;;;;21.75;13.25;;;;;;;-0.65;100.00;101921.91;5197379;28;20032;-78
2023/02/15 07:10:46;;;;;;;20.35;12.90;;;;;;;-0.66;100.00;101922.75;5190693;28;20483;-78
2023/02/15 07:13:17;;;;;;;23.20;12.93;;;;;;;-0.63;100.00;101922.81;5189269;28;20103;-77
2023/02/15 07:15:48;;;;;;;21.23;13.07;;;;;;;-0.70;100.00;101921.75;5186734;28;20128;-78
2023/02/15 07:18:19;;;;;;;19.83;12.38;;;;;;;-0.64;100.00;101914.28;5194593;28;20136;-77
2023/02/15 07:20:49;;;;;;;21.15;13.48;;;;;;;-0.66;100.00;101917.59;5194624;28;20113;-76
2023/02/15 07:23:20;;;;;;;20.08;12.93;;;;;;;-0.49;100.00;101913.84;5191906;28;20033;-77
2023/02/15 07:25:59;;;;;;;22.60;13.48;;;;;;;-0.48;100.00;101898.50;5191268;28;20037;-78
2023/02/15 07:28:30;;;;;;;22.23;12.85;;;;;;;-0.41;100.00;101905.56;5187336;28;20021;-77
2023/02/15 07:31:04;;;;;;;22.98;13.77;;;;;;;-0.43;100.00;101903.75;5192426;28;20092;-78
2023/02/15 07:33:35;;;;;;;22.13;13.93;;;;;;;-0.44;100.00;101902.91;5189677;28;20036;-77
2023/02/15 07:36:05;;;;;;;26.30;13.95;;;;;;;0.20;100.00;101885.91;5153433;28;20030;-78
2023/02/15 07:38:38;;;;;;;19.58;12.43;;;;;;;0.48;100.00;101893.50;5200274;28;20025;-76
2023/02/15 07:41:11;;;;;;;20.15;12.07;;;;;;;0.93;100.00;101892.94;5191363;28;20491;-78
2023/02/15 07:43:44;;;;;;;18.27;12.38;;;;;;;0.90;100.00;101892.03;5191410;28;20026;-79
2023/02/15 07:46:16;;;;;;;17.58;11.68;;;;;;;1.05;100.00;101890.66;5183079;28;20021;-77
2023/02/15 07:48:47;;;;;;;18.98;11.55;;;;;;;1.10;100.00;101880.47;5185828;28;20108;-78
2023/02/15 07:51:17;;;;;;;18.80;11.95;;;;;;;1.45;100.00;101880.47;5184185;28;20117;-77
2023/02/15 07:53:47;;;;;;;20.40;12.00;;;;;;;1.74;100.00;101876.78;5187551;28;20057;-77
2023/02/15 07:56:17;;;;;;;16.38;10.85;;;;;;;2.16;100.00;101873.31;5173157;28;20114;-78
2023/02/15 07:58:50;;;;;;;16.42;10.73;;;;;;;2.86;100.00;101862.53;5194280;28;20494;-78
2023/02/15 08:01:33;;;;;;;15.45;10.43;;;;;;;3.46;98.97;101873.75;5183575;28;20033;-78
2023/02/15 08:04:05;;;;;;;15.98;9.48;;;;;;;4.11;96.66;101864.25;5185936;28;20041;-79
2023/02/15 08:06:36;;;;;;;13.82;9.07;;;;;;;4.96;94.16;101855.59;5189489;28;20161;-77
2023/02/15 08:09:08;;;;;;;14.75;9.95;;;;;;;5.82;88.22;101852.66;5192228;28;20037;-79
2023/02/15 08:11:42;;;;;;;14.13;9.27;;;;;;;6.99;86.27;101839.84;5191974;28;20526;-79
2023/02/15 08:14:16;;;;;;;10.82;7.78;;;;;;;7.49;82.06;101838.91;5189753;28;20049;-79
2023/02/15 08:16:49;;;;;;;12.32;7.80;;;;;;;6.83;77.96;101848.53;5187104;28;20133;-79
2023/02/15 08:19:22;;;;;;;9.82;7.20;;;;;;;8.46;78.05;101845.38;5172190;28;20117;-76
2023/02/15 08:22:06;;;;;;;11.30;7.70;;;;;;;7.26;76.27;101850.22;5207660;23;20028;-72
2023/02/15 08:24:37;;;;;;;10.63;7.80;;;;;;;6.37;82.02;101850.22;5203647;28;20045;-71
2023/02/15 08:27:10;;;;;;;11.30;8.48;;;;;;;6.66;84.19;101840.75;5203757;28;20510;-72
2023/02/15 08:29:41;;;;;;;11.73;8.52;;;;;;;8.78;78.46;101838.19;5203957;28;20029;-73
2023/02/15 08:32:12;;;;;;;10.93;7.72;;;;;;;9.73;75.42;101825.91;5204594;28;20036;-71
2023/02/15 08:34:43;;;;;;;11.48;7.80;;;;;;;9.79;73.95;101828.47;5204128;28;20479;-71
2023/02/15 08:37:13;;;;;;;9.90;7.50;;;;;;;10.35;72.13;101815.53;5203578;28;20025;-71
2023/02/15 08:39:45;;;;;;;11.30;7.95;;;;;;;10.34;70.87;101824.25;5203974;28;20035;-71
2023/02/15 08:42:15;;;;;;;12.25;8.07;;;;;;;9.38;70.47;101830.66;5203372;28;20104;-73
2023/02/15 08:44:46;;;;;;;11.15;8.32;;;;;;;8.55;76.56;101829.72;5186682;28;20439;-73
2023/02/15 08:47:16;;;;;;;13.32;8.88;;;;;;;9.53;75.08;101826.16;5203517;28;20029;-72
2023/02/15 08:49:46;;;;;;;10.90;7.88;;;;;;;9.11;76.42;101825.75;5203925;28;20053;-71
2023/02/15 08:52:17;;;;;;;11.18;8.38;;;;;;;9.73;73.49;101826.78;5204580;28;20029;-71
2023/02/15 08:54:47;;;;;;;12.95;8.48;;;;;;;9.99;70.96;101824.69;5202675;28;20414;-72
2023/02/15 08:57:17;;;;;;;11.10;7.88;;;;;;;9.87;75.13;101824.88;5204267;28;20045;-71
2023/02/15 08:59:49;;;;;;;11.32;8.48;;;;;;;10.12;73.84;101826.28;5204584;28;20052;-72
2023/02/15 09:02:19;;;;;;;11.45;8.40;;;;;;;10.34;76.14;101821.63;5199116;28;20037;-72
2023/02/15 09:04:49;;;;;;;12.30;8.60;;;;;;;9.57;76.88;101820.03;5203964;28;20394;-72
2023/02/15 09:07:20;;;;;;;11.07;8.50;;;;;;;9.87;75.40;101818.78;5186380;28;20061;-71
2023/02/15 09:09:50;;;;;;;13.80;8.85;;;;;;;9.18;74.30;101822.19;5204701;28;20275;-72
2023/02/15 09:12:20;;;;;;;14.02;9.52;;;;;;;7.90;81.37;101819.63;5204530;28;20064;-71
2023/02/15 09:14:50;;;;;;;15.07;9.68;;;;;;;6.92;89.36;101815.59;5204436;28;20025;-72
2023/02/15 09:17:21;;;;;;;14.02;9.93;;;;;;;6.05;91.98;101820.72;5203683;28;20056;-70
2023/02/15 09:19:51;;;;;;;16.80;10.98;;;;;;;6.41;96.27;101812.16;5203652;28;20025;-71
2023/02/15 09:22:21;;;;;;;19.55;11.70;;;;;;;6.26;97.21;101806.94;5203811;28;20037;-71
2023/02/15 09:24:51;;;;;;;17.88;11.27;;;;;;;6.66;96.22;101809.56;5203733;28;20065;-72
2023/02/15 09:27:22;;;;;;;19.08;12.45;;;;;;;6.33;98.72;101806.06;5170813;28;20026;-72
2023/02/15 09:29:52;;;;;;;19.05;12.00;;;;;;;6.47;98.18;101801.78;5204289;28;20060;-71
2023/02/15 09:32:22;;;;;;;17.45;11.73;;;;;;;6.27;97.96;101808.66;5201382;28;20052;-72
2023/02/15 09:34:52;;;;;;;17.02;11.45;;;;;;;6.26;99.37;101806.94;5202321;28;20052;-72
2023/02/15 09:37:23;;;;;;;18.33;12.25;;;;;;;6.13;100.00;101800.00;5187024;28;20029;-72
2023/02/15 09:39:54;;;;;;;18.52;11.73;;;;;;;6.48;100.00;101808.69;5203960;28;20072;-71
2023/02/15 09:43:02;;;;;;;18.27;11.48;;;;;;;6.46;100.00;101802.63;5202354;28;20028;-71
2023/02/15 09:45:58;;;;;;;16.33;11.05;;;;;;;5.98;100.00;101799.94;5194408;28;20107;-71
2023/02/15 09:48:39;;;;;;;17.73;11.13;;;;;;;6.14;100.00;101806.91;5200672;28;20112;-73
2023/02/15 09:51:26;;;;;;;16.15;10.38;;;;;;;6.33;100.00;101808.66;5203284;28;20030;-71
2023/02/15 09:54:11;;;;;;;17.58;11.30;;;;;;;6.64;100.00;101800.91;5201447;28;20021;-71
2023/02/15 09:57:00;;;;;;;17.73;10.35;;;;;;;6.49;100.00;101800.03;5202248;28;20101;-72
2023/02/15 09:59:36;;;;;;;16.92;9.57;;;;;;;6.57;100.00;101803.50;5201838;28;20048;-71
2023/02/15 10:02:13;;;;;;;15.57;9.82;;;;;;;6.60;100.00;101795.72;5184494;28;20056;-70
2023/02/15 10:05:01;;;;;;;16.13;9.18;;;;;;;6.78;100.00;101787.91;5189079;28;20032;-72
2023/02/15 10:08:02;;;;;;;16.13;9.30;;;;;;;6.72;100.00;101787.91;5200901;28;20394;-73
2023/02/15 10:11:38;;;;;;;13.52;8.32;;;;;;;6.85;100.00;101790.50;5195158;28;20025;-73
2023/02/15 10:14:38;;;;;;;17.17;9.23;;;;;;;6.90;100.00;101787.91;5201545;28;20092;-73
2023/02/15 10:17:17;;;;;;;14.65;9.50;;;;;;;7.05;100.00;101774.88;5118140;28;20622;-74
2023/02/15 10:19:50;;;;;;;14.95;9.43;;;;;;;7.22;100.00;101774.81;5197739;28;20045;-72
2023/02/15 10:22:26;;;;;;;13.30;8.43;;;;;;;7.02;100.00;101774.88;5202584;28;20025;-72
2023/02/15 10:25:18;;;;;;;12.10;7.68;;;;;;;7.34;100.00;101771.34;5202155;28;20033;-74
2023/02/15 10:27:49;;;;;;;12.00;7.80;;;;;;;7.44;100.00;101767.81;5201168;28;20505;-72
2023/02/15 10:30:34;;;;;;;13.30;8.48;;;;;;;7.50;100.00;101763.47;5201414;28;20061;-73
2023/02/15 10:33:28;;;;;;;12.48;8.18;;;;;;;7.34;100.00;101766.13;5199560;28;20042;-73
2023/02/15 10:36:27;;;;;;;15.50;8.45;;;;;;;7.69;100.00;101759.91;5190622;28;20495;-74
2023/02/15 10:39:22;;;;;;;19.10;8.80;;;;;;;7.57;100.00;101759.09;5196443;28;20037;-71
2023/02/15 10:42:16;;;;;;;16.38;9.57;;;;;;;7.58;100.00;101756.50;5201204;28;20074;-73
2023/02/15 10:44:49;;;;;;;14.30;9.02;;;;;;;7.66;100.00;101748.66;5201165;28;20105;-70
2023/02/15 10:47:48;;;;;;;13.35;8.80;;;;;;;7.82;100.00;101750.28;5203914;28;20499;-72
2023/02/15 10:50:36;;;;;;;15.65;9.88;;;;;;;7.77;100.00;101747.72;5205598;28;20609;-72
2023/02/15 10:53:15;;;;;;;14.27;8.95;;;;;;;7.82;100.00;101745.94;5205117;28;20091;-72
2023/02/15 10:56:02;;;;;;;12.82;8.48;;;;;;;7.73;100.00;101740.78;5205217;28;20101;-72
2023/02/15 10:59:01;;;;;;;12.68;8.77;;;;;;;7.51;100.00;101740.94;5203697;28;20033;-73
2023/02/15 11:01:40;;;;;;;17.17;8.50;;;;;;;7.51;100.00;101736.56;5201439;28;20453;-72
2023/02/15 11:04:36;;;;;;;13.38;8.93;;;;;;;7.56;100.00;101747.81;5205385;28;20383;-72
2023/02/15 11:07:16;;;;;;;11.07;6.87;;;;;;;7.60;100.00;101744.34;5204773;28;20033;-73
2023/02/15 11:09:53;;;;;;;11.82;8.18;;;;;;;7.74;100.00;101747.72;5204716;28;20273;-73
2023/02/15 11:12:28;;;;;;;14.00;6.82;;;;;;;7.73;99.77;101746.00;5204732;28;20326;-73
2023/02/15 11:15:10;;;;;;;15.15;6.82;;;;;;;7.77;99.60;101739.91;5192399;28;20320;-73
2023/02/15 11:17:50;;;;;;;12.00;6.70;;;;;;;8.03;97.28;101743.22;5204713;28;20056;-74
2023/02/15 11:20:35;;;;;;;8.65;5.55;;;;;;;8.02;96.20;101738.03;5203384;28;20056;-72
2023/02/15 11:23:15;;;;;;;12.50;6.37;;;;;;;7.98;94.96;101739.78;5195320;28;20502;-74
2023/02/15 11:25:58;;;;;;;11.88;6.82;;;;;;;8.14;94.08;101738.81;5205475;28;20017;-72
2023/02/15 11:28:38;;;;;;;11.82;6.68;;;;;;;8.31;93.57;101731.75;5204614;28;20033;-73
2023/02/15 11:31:19;;;;;;;12.73;6.75;;;;;;;8.32;91.23;101737.81;5204769;28;20061;-72
2023/02/15 11:33:55;;;;;;;10.00;6.10;;;;;;;8.37;91.54;101741.28;5203848;28;20033;-72
2023/02/15 11:36:32;;;;;;;11.10;6.40;;;;;;;8.54;90.98;101727.22;5199904;28;20084;-72
2023/02/15 11:39:10;;;;;;;9.15;5.30;;;;;;;8.54;89.40;101724.59;5202718;28;20064;-72
2023/02/15 11:41:46;;;;;;;9.80;5.55;;;;;;;8.54;89.28;101722.00;5182521;28;20116;-72
2023/02/15 11:44:39;;;;;;;8.40;5.38;;;;;;;8.56;89.74;101717.63;5202056;28;20113;-73
2023/02/15 11:47:12;;;;;;;9.50;5.35;;;;;;;8.54;90.11;101713.34;5202026;28;20112;-73
2023/02/15 11:49:45;;;;;;;12.85;5.72;;;;;;;8.66;90.54;101708.00;5180514;28;20029;-72
2023/02/15 11:52:18;;;;;;;10.60;5.32;;;;;;;8.58;89.38;101709.81;5202675;28;20029;-73
2023/02/15 11:54:51;;;;;;;9.95;5.60;;;;;;;8.67;87.64;101700.16;5202775;28;20027;-74
2023/02/15 11:57:54;;;;;;;11.93;5.55;;;;;;;8.81;87.99;101706.13;5203458;28;20025;-71
2023/02/15 12:00:35;;;;;;;8.85;4.95;;;;;;;8.74;85.53;101695.75;5199690;28;20291;-72
2023/02/15 12:03:21;;;;;;;34.80;17.20;;;;;;;8.93;84.74;101698.13;5202220;28;20036;-72
2023/02/15 12:05:58;;;;;;;16.40;7.38;;;;;;;8.96;84.18;101692.03;5203382;28;20025;-72
2023/02/15 12:08:40;;;;;;;11.23;5.45;;;;;;;8.85;84.68;101692.16;5200313;28;20407;-72
2023/02/15 12:11:19;;;;;;;12.32;5.20;;;;;;;8.89;85.61;101690.41;5202556;28;20029;-72